Mercer, Missouri
Current Conditions -  °F | °C
As of 12:53 AM on Friday 31 Oct 2014 (Local Time) from KLWD Reporting Station
Light Rain Light Rain  
Wind Chill: 41°   Ceiling: 2300
Heat Index: 47°   Visibility: 10mi
Dew Point: 37°   Wind: 15mph
Humidity: 68%   Direction: 360°N
Pressure: 30.24"   Gusts: 28mph
Location:  40.51°N, 93.53°W
Report Text: KLWD 310553Z AUTO 36013G24KT 10SM -RA OVC023 08/03 A3024 RMK AO2 PK WND 35030/0538 SLP243 P0000 60000 T00830028 10122 20083 401720056 51030
Loading
Personal Weather Stations






























Interactive Weather Map
Tropical Storm Tracking
New forecast layout! Learn more

10-Day Weather Forecast

Advertisements
Track Severe Weather on mobile